Royse City's Hourly Summary for Wednesday, March 15, 2017
Hour Temp
(f)
RH
(%)
Solar Rad.
(MJ/m2)
Rainfall
(in)
Wind
(mph)
3/15/2017 12:00 AM 48 56 0 0 0.94
3/15/2017 1:00 AM 47 57 0 0 3.29
3/15/2017 2:00 AM 46 59 0 0 3.71
3/15/2017 3:00 AM 45 60 0 0 4.08
3/15/2017 4:00 AM 46 61 0 0 3.97
3/15/2017 5:00 AM 45 64 0 0 3.93
3/15/2017 6:00 AM 45 68 0 0 3.19
3/15/2017 7:00 AM 45 67 0 0 3.93
3/15/2017 8:00 AM 44 66 0.01 0 3.85
3/15/2017 9:00 AM 43 66 0.18 0 4.51
3/15/2017 10:00 AM 43 66 0.6 0 4.62
3/15/2017 11:00 AM 45 63 1.12 0 4.73
3/15/2017 12:00 PM 48 57 2.12 0 4.76
3/15/2017 1:00 PM 51 52 2.86 0 4.29
3/15/2017 2:00 PM 54 48 2.87 0 4.5
3/15/2017 3:00 PM 56 45 2.44 0 4.76
3/15/2017 4:00 PM 58 42 2.53 0 5.05
3/15/2017 5:00 PM 60 43 1.9 0 4.28
3/15/2017 6:00 PM 61 41 1.19 0 3.45
3/15/2017 7:00 PM 59 45 0.5 0 3.79
3/15/2017 8:00 PM 56 49 0.04 0 2.3
3/15/2017 9:00 PM 53 56 0 0 1.35
3/15/2017 10:00 PM 51 60 0 0 1.47
3/15/2017 11:00 PM 50 67 0 0 1.38
Data Summary 49 56 18.36 0.00 3.59